Etusivu
METAR-TAF:

METAR-TAF

Lentoasemat :

Kunming, Kiina

Leveyspiiri: 25-01N, Pituuspiiri: 102-41E, korkeus merenpinnasta: 1892 m

Tämänhetkinen sää

Tämä raportti tehtiin 21 minuuttia sitten, kello 11.00 UTC
Tuuli 8 kn pohjoisesta/koillisesta
Lämpötila 3°C
Kosteus 100%
Ilmanpaine 1024 hPa
Näkyvyys: 3200 m
Hajanaisia pilviä 300 ft:n korkeudessa
Hajanaisia pilviä 400 ft:n korkeudessa
Pilvistä 3000 ft:n korkeudessa
utua

METAR: ZPPP 231100Z 03004MPS 3200 BR SCT003 SCT004 OVC030 03/03 Q1024 NOSIG

Aika: 19:21 (11:21 UTC)

Sääennuste

Tämä raportti tehtiin 10 tuntia ja 9 minuuttia sitten, kello 01.12 UTC
Ennuste voimassa 23. päivästä klo 06 UTC - 24. päivään klo 06 UTC
Tuuli 12 kn koillisesta
Näkyvyys: 1800 m
Hajanaisia pilviä 300 ft:n korkeudessa
Pilvistä 3000 ft:n korkeudessa
utua

TAF: ZPPP 230112Z 2306/2406 04006MPS 1800 BR SCT003 OVC030 TX05/2308Z TN02/2323Z

Säähavainnot ja -ennusteet yli 4000 lentoasemalta (METAR- ja TAF-raportit).

Käytössä olevat sääasemat on merkitty karttaan keltaisilla ja punaisilla pisteillä.

Aseta hiiri pisteen päälle nähdäksesi sääaseman nimen.

Klikkaa sitten nähdäksesi säähavainnot ja -ennusteet.

Kartan vaihtaminen: klikkaa mustalla rastilla varustettuja vihreitä pisteitä, niin voit zoomata sisään; viivalla varustettua vihreää pistettä, niin voit zoomata ulos tai vihreitä nuolia, niin pääset viereisille kartoille.


METAR-TAF: